sensor_id;sensor_type;location;lat;lon;timestamp;temperature;humidity
26081;DHT22;13991;51.174;4.438;2024-01-25T00:02:08;11.00;99.90
26081;DHT22;13991;51.174;4.438;2024-01-25T00:04:34;11.00;99.90
26081;DHT22;13991;51.174;4.438;2024-01-25T00:07:00;11.00;99.90
26081;DHT22;13991;51.174;4.438;2024-01-25T00:09:25;10.90;99.90
26081;DHT22;13991;51.174;4.438;2024-01-25T00:11:51;10.90;99.90
26081;DHT22;13991;51.174;4.438;2024-01-25T00:14:16;10.90;99.90
26081;DHT22;13991;51.174;4.438;2024-01-25T00:16:42;10.90;99.90
26081;DHT22;13991;51.174;4.438;2024-01-25T00:19:08;10.90;99.90
26081;DHT22;13991;51.174;4.438;2024-01-25T00:21:33;10.80;99.90
26081;DHT22;13991;51.174;4.438;2024-01-25T00:23:59;10.80;99.90
26081;DHT22;13991;51.174;4.438;2024-01-25T00:26:24;10.70;99.90
26081;DHT22;13991;51.174;4.438;2024-01-25T00:28:50;10.70;99.90
26081;DHT22;13991;51.174;4.438;2024-01-25T00:31:16;10.70;99.90
26081;DHT22;13991;51.174;4.438;2024-01-25T00:33:41;10.70;99.90
26081;DHT22;13991;51.174;4.438;2024-01-25T00:36:07;10.60;99.90
26081;DHT22;13991;51.174;4.438;2024-01-25T00:38:34;10.50;99.90
26081;DHT22;13991;51.174;4.438;2024-01-25T00:41:00;10.50;99.90
26081;DHT22;13991;51.174;4.438;2024-01-25T00:43:26;10.50;99.90
26081;DHT22;13991;51.174;4.438;2024-01-25T00:45:52;10.50;99.90
26081;DHT22;13991;51.174;4.438;2024-01-25T00:48:18;10.50;99.90
26081;DHT22;13991;51.174;4.438;2024-01-25T00:50:43;10.50;99.90
26081;DHT22;13991;51.174;4.438;2024-01-25T00:53:09;10.40;99.90
26081;DHT22;13991;51.174;4.438;2024-01-25T00:55:35;10.40;99.90
26081;DHT22;13991;51.174;4.438;2024-01-25T00:58:01;10.20;99.90
26081;DHT22;13991;51.174;4.438;2024-01-25T01:00:27;10.20;99.90
26081;DHT22;13991;51.174;4.438;2024-01-25T01:02:53;10.20;99.90
26081;DHT22;13991;51.174;4.438;2024-01-25T01:05:19;10.30;99.90
26081;DHT22;13991;51.174;4.438;2024-01-25T01:07:46;10.20;99.90
26081;DHT22;13991;51.174;4.438;2024-01-25T01:10:11;10.20;99.90
26081;DHT22;13991;51.174;4.438;2024-01-25T01:12:37;10.20;99.90
26081;DHT22;13991;51.174;4.438;2024-01-25T01:15:03;10.20;99.90
26081;DHT22;13991;51.174;4.438;2024-01-25T01:17:29;10.10;99.90
26081;DHT22;13991;51.174;4.438;2024-01-25T01:19:55;10.10;99.90
26081;DHT22;13991;51.174;4.438;2024-01-25T01:22:20;10.10;99.90
26081;DHT22;13991;51.174;4.438;2024-01-25T01:24:46;10.00;99.90
26081;DHT22;13991;51.174;4.438;2024-01-25T01:27:12;10.00;99.90
26081;DHT22;13991;51.174;4.438;2024-01-25T01:29:37;10.10;99.90
26081;DHT22;13991;51.174;4.438;2024-01-25T01:32:03;10.10;99.90
26081;DHT22;13991;51.174;4.438;2024-01-25T01:34:29;10.00;99.90
26081;DHT22;13991;51.174;4.438;2024-01-25T01:36:55;10.00;99.90
26081;DHT22;13991;51.174;4.438;2024-01-25T01:39:20;9.90;99.90
26081;DHT22;13991;51.174;4.438;2024-01-25T01:41:49;9.90;99.90
26081;DHT22;13991;51.174;4.438;2024-01-25T01:44:15;9.90;99.90
26081;DHT22;13991;51.174;4.438;2024-01-25T01:46:41;9.90;99.90
26081;DHT22;13991;51.174;4.438;2024-01-25T01:49:11;9.80;99.90
26081;DHT22;13991;51.174;4.438;2024-01-25T01:51:37;9.80;99.90
26081;DHT22;13991;51.174;4.438;2024-01-25T01:54:06;9.80;99.90
26081;DHT22;13991;51.174;4.438;2024-01-25T01:56:33;9.70;99.90
26081;DHT22;13991;51.174;4.438;2024-01-25T01:59:07;9.70;99.90
26081;DHT22;13991;51.174;4.438;2024-01-25T02:01:33;9.70;99.90
26081;DHT22;13991;51.174;4.438;2024-01-25T02:03:59;9.60;99.90
26081;DHT22;13991;51.174;4.438;2024-01-25T02:06:24;9.60;99.90
26081;DHT22;13991;51.174;4.438;2024-01-25T02:08:50;9.60;99.90
26081;DHT22;13991;51.174;4.438;2024-01-25T02:11:18;9.60;99.90
26081;DHT22;13991;51.174;4.438;2024-01-25T02:13:44;9.60;99.90
26081;DHT22;13991;51.174;4.438;2024-01-25T02:16:10;9.50;99.90
26081;DHT22;13991;51.174;4.438;2024-01-25T02:18:36;9.50;99.90
26081;DHT22;13991;51.174;4.438;2024-01-25T02:21:02;9.50;99.90
26081;DHT22;13991;51.174;4.438;2024-01-25T02:23:27;9.50;99.90
26081;DHT22;13991;51.174;4.438;2024-01-25T02:25:53;9.50;99.90
26081;DHT22;13991;51.174;4.438;2024-01-25T02:28:19;9.50;99.90
26081;DHT22;13991;51.174;4.438;2024-01-25T02:30:44;9.40;99.90
26081;DHT22;13991;51.174;4.438;2024-01-25T02:33:10;9.40;99.90
26081;DHT22;13991;51.174;4.438;2024-01-25T02:35:37;9.30;99.90
26081;DHT22;13991;51.174;4.438;2024-01-25T02:38:03;9.40;99.90
26081;DHT22;13991;51.174;4.438;2024-01-25T02:40:29;9.40;99.90
26081;DHT22;13991;51.174;4.438;2024-01-25T02:42:54;9.30;99.90
26081;DHT22;13991;51.174;4.438;2024-01-25T02:45:22;9.20;99.90
26081;DHT22;13991;51.174;4.438;2024-01-25T02:47:47;9.20;99.90
26081;DHT22;13991;51.174;4.438;2024-01-25T02:50:13;9.20;99.90
26081;DHT22;13991;51.174;4.438;2024-01-25T02:52:40;9.20;99.90
26081;DHT22;13991;51.174;4.438;2024-01-25T02:55:06;9.20;99.90
26081;DHT22;13991;51.174;4.438;2024-01-25T02:57:31;9.20;99.90
26081;DHT22;13991;51.174;4.438;2024-01-25T02:59:57;9.20;99.90
26081;DHT22;13991;51.174;4.438;2024-01-25T03:02:23;9.30;99.90
26081;DHT22;13991;51.174;4.438;2024-01-25T03:04:49;9.20;99.90
26081;DHT22;13991;51.174;4.438;2024-01-25T03:07:15;9.20;99.90
26081;DHT22;13991;51.174;4.438;2024-01-25T03:09:40;9.30;99.90
26081;DHT22;13991;51.174;4.438;2024-01-25T03:12:06;9.20;99.90
26081;DHT22;13991;51.174;4.438;2024-01-25T03:14:32;9.10;99.90
26081;DHT22;13991;51.174;4.438;2024-01-25T03:16:57;9.10;99.90
26081;DHT22;13991;51.174;4.438;2024-01-25T03:19:27;9.00;99.90
26081;DHT22;13991;51.174;4.438;2024-01-25T03:21:54;9.00;99.90
26081;DHT22;13991;51.174;4.438;2024-01-25T03:24:21;9.00;99.90
26081;DHT22;13991;51.174;4.438;2024-01-25T03:26:46;9.00;99.90
26081;DHT22;13991;51.174;4.438;2024-01-25T03:29:12;8.90;99.90
26081;DHT22;13991;51.174;4.438;2024-01-25T03:31:38;8.90;99.90
26081;DHT22;13991;51.174;4.438;2024-01-25T03:34:04;8.90;99.90
26081;DHT22;13991;51.174;4.438;2024-01-25T03:36:30;8.70;99.90
26081;DHT22;13991;51.174;4.438;2024-01-25T03:38:56;8.80;99.90
26081;DHT22;13991;51.174;4.438;2024-01-25T03:41:22;8.80;99.90
26081;DHT22;13991;51.174;4.438;2024-01-25T03:43:49;8.70;99.90
26081;DHT22;13991;51.174;4.438;2024-01-25T03:46:15;8.60;99.90
26081;DHT22;13991;51.174;4.438;2024-01-25T03:48:40;8.60;99.90
26081;DHT22;13991;51.174;4.438;2024-01-25T03:51:06;8.70;99.90
26081;DHT22;13991;51.174;4.438;2024-01-25T03:53:32;8.80;99.90
26081;DHT22;13991;51.174;4.438;2024-01-25T03:55:58;8.80;99.90
26081;DHT22;13991;51.174;4.438;2024-01-25T03:58:24;8.80;99.90
26081;DHT22;13991;51.174;4.438;2024-01-25T04:00:49;8.70;99.90
26081;DHT22;13991;51.174;4.438;2024-01-25T04:03:15;8.70;99.90
26081;DHT22;13991;51.174;4.438;2024-01-25T04:05:40;8.70;99.90
26081;DHT22;13991;51.174;4.438;2024-01-25T04:08:06;8.70;99.90
26081;DHT22;13991;51.174;4.438;2024-01-25T04:10:32;8.60;99.90
26081;DHT22;13991;51.174;4.438;2024-01-25T04:12:58;8.50;99.90
26081;DHT22;13991;51.174;4.438;2024-01-25T04:15:26;8.40;99.90
26081;DHT22;13991;51.174;4.438;2024-01-25T04:17:52;8.40;99.90
26081;DHT22;13991;51.174;4.438;2024-01-25T04:20:19;8.40;99.90
26081;DHT22;13991;51.174;4.438;2024-01-25T04:22:45;8.50;99.90
26081;DHT22;13991;51.174;4.438;2024-01-25T04:25:11;8.50;99.90
26081;DHT22;13991;51.174;4.438;2024-01-25T04:27:40;8.60;99.90
26081;DHT22;13991;51.174;4.438;2024-01-25T04:30:06;8.50;99.90
26081;DHT22;13991;51.174;4.438;2024-01-25T04:32:32;8.50;99.90
26081;DHT22;13991;51.174;4.438;2024-01-25T04:34:58;8.50;99.90
26081;DHT22;13991;51.174;4.438;2024-01-25T04:37:24;8.60;99.90
26081;DHT22;13991;51.174;4.438;2024-01-25T04:39:49;8.50;99.90
26081;DHT22;13991;51.174;4.438;2024-01-25T04:42:15;8.50;99.90
26081;DHT22;13991;51.174;4.438;2024-01-25T04:44:41;8.40;99.90
26081;DHT22;13991;51.174;4.438;2024-01-25T04:47:06;8.30;99.90
26081;DHT22;13991;51.174;4.438;2024-01-25T04:49:32;8.20;99.90
26081;DHT22;13991;51.174;4.438;2024-01-25T04:51:58;8.30;99.90
26081;DHT22;13991;51.174;4.438;2024-01-25T04:54:23;8.20;99.90
26081;DHT22;13991;51.174;4.438;2024-01-25T04:56:49;8.30;99.90
26081;DHT22;13991;51.174;4.438;2024-01-25T04:59:15;8.30;99.90
26081;DHT22;13991;51.174;4.438;2024-01-25T05:01:40;8.30;99.90
26081;DHT22;13991;51.174;4.438;2024-01-25T05:04:06;8.30;99.90
26081;DHT22;13991;51.174;4.438;2024-01-25T05:06:32;8.30;99.90
26081;DHT22;13991;51.174;4.438;2024-01-25T05:08:57;8.30;99.90
26081;DHT22;13991;51.174;4.438;2024-01-25T05:11:23;8.20;99.90
26081;DHT22;13991;51.174;4.438;2024-01-25T05:13:49;8.20;99.90
26081;DHT22;13991;51.174;4.438;2024-01-25T05:16:14;8.20;99.90
26081;DHT22;13991;51.174;4.438;2024-01-25T05:18:40;8.20;99.90
26081;DHT22;13991;51.174;4.438;2024-01-25T05:21:06;8.20;99.90
26081;DHT22;13991;51.174;4.438;2024-01-25T05:23:32;8.20;99.90
26081;DHT22;13991;51.174;4.438;2024-01-25T05:25:57;8.10;99.90
26081;DHT22;13991;51.174;4.438;2024-01-25T05:28:23;8.00;99.90
26081;DHT22;13991;51.174;4.438;2024-01-25T05:30:50;7.90;99.90
26081;DHT22;13991;51.174;4.438;2024-01-25T05:33:15;8.00;99.90
26081;DHT22;13991;51.174;4.438;2024-01-25T05:35:41;8.10;99.90
26081;DHT22;13991;51.174;4.438;2024-01-25T05:38:07;8.10;99.90
26081;DHT22;13991;51.174;4.438;2024-01-25T05:40:32;8.10;99.90
26081;DHT22;13991;51.174;4.438;2024-01-25T05:42:59;8.10;99.90
26081;DHT22;13991;51.174;4.438;2024-01-25T05:45:24;8.00;99.90
26081;DHT22;13991;51.174;4.438;2024-01-25T05:47:50;7.90;99.90
26081;DHT22;13991;51.174;4.438;2024-01-25T05:50:16;7.90;99.90
26081;DHT22;13991;51.174;4.438;2024-01-25T05:52:42;7.80;99.90
26081;DHT22;13991;51.174;4.438;2024-01-25T05:55:08;7.80;99.90
26081;DHT22;13991;51.174;4.438;2024-01-25T05:57:35;7.80;99.90
26081;DHT22;13991;51.174;4.438;2024-01-25T06:00:02;7.80;99.90
26081;DHT22;13991;51.174;4.438;2024-01-25T06:02:28;7.80;99.90
26081;DHT22;13991;51.174;4.438;2024-01-25T06:04:54;7.80;99.90
26081;DHT22;13991;51.174;4.438;2024-01-25T06:07:20;7.80;99.90
26081;DHT22;13991;51.174;4.438;2024-01-25T06:09:46;7.80;99.90
26081;DHT22;13991;51.174;4.438;2024-01-25T06:12:11;7.90;99.90
26081;DHT22;13991;51.174;4.438;2024-01-25T06:14:37;7.90;99.90
26081;DHT22;13991;51.174;4.438;2024-01-25T06:17:03;7.80;99.90
26081;DHT22;13991;51.174;4.438;2024-01-25T06:19:29;7.80;99.90
26081;DHT22;13991;51.174;4.438;2024-01-25T06:21:54;7.80;99.90
26081;DHT22;13991;51.174;4.438;2024-01-25T06:24:20;7.80;99.90
26081;DHT22;13991;51.174;4.438;2024-01-25T06:26:46;7.90;99.90
26081;DHT22;13991;51.174;4.438;2024-01-25T06:29:11;7.90;99.90
26081;DHT22;13991;51.174;4.438;2024-01-25T06:31:43;7.80;99.90
26081;DHT22;13991;51.174;4.438;2024-01-25T06:34:09;7.80;99.90
26081;DHT22;13991;51.174;4.438;2024-01-25T06:36:35;7.90;99.90
26081;DHT22;13991;51.174;4.438;2024-01-25T06:39:01;7.90;99.90
26081;DHT22;13991;51.174;4.438;2024-01-25T06:41:26;8.00;99.90
26081;DHT22;13991;51.174;4.438;2024-01-25T06:43:52;8.00;99.90
26081;DHT22;13991;51.174;4.438;2024-01-25T06:46:18;8.00;99.90
26081;DHT22;13991;51.174;4.438;2024-01-25T06:48:43;8.00;99.90
26081;DHT22;13991;51.174;4.438;2024-01-25T06:51:09;7.90;99.90
26081;DHT22;13991;51.174;4.438;2024-01-25T06:53:35;7.80;99.90
26081;DHT22;13991;51.174;4.438;2024-01-25T06:56:00;7.80;99.90
26081;DHT22;13991;51.174;4.438;2024-01-25T06:58:26;7.80;99.90
26081;DHT22;13991;51.174;4.438;2024-01-25T07:00:52;7.90;99.90
26081;DHT22;13991;51.174;4.438;2024-01-25T07:03:18;7.90;99.90
26081;DHT22;13991;51.174;4.438;2024-01-25T07:05:44;7.80;99.90
26081;DHT22;13991;51.174;4.438;2024-01-25T07:08:10;7.90;99.90
26081;DHT22;13991;51.174;4.438;2024-01-25T07:10:39;8.00;99.90
26081;DHT22;13991;51.174;4.438;2024-01-25T07:13:05;8.00;99.90
26081;DHT22;13991;51.174;4.438;2024-01-25T07:15:30;8.00;99.90
26081;DHT22;13991;51.174;4.438;2024-01-25T07:17:56;8.00;99.90
26081;DHT22;13991;51.174;4.438;2024-01-25T07:20:22;8.00;99.90
26081;DHT22;13991;51.174;4.438;2024-01-25T07:22:47;8.10;99.90
26081;DHT22;13991;51.174;4.438;2024-01-25T07:25:13;8.10;99.90
26081;DHT22;13991;51.174;4.438;2024-01-25T07:27:39;8.10;99.90
26081;DHT22;13991;51.174;4.438;2024-01-25T07:30:05;8.10;99.90
26081;DHT22;13991;51.174;4.438;2024-01-25T07:32:33;8.20;99.90
26081;DHT22;13991;51.174;4.438;2024-01-25T07:35:01;8.10;99.90
26081;DHT22;13991;51.174;4.438;2024-01-25T07:37:26;8.20;99.90
26081;DHT22;13991;51.174;4.438;2024-01-25T07:39:52;8.20;99.90
26081;DHT22;13991;51.174;4.438;2024-01-25T07:42:17;8.10;99.90
26081;DHT22;13991;51.174;4.438;2024-01-25T07:44:44;8.10;99.90
26081;DHT22;13991;51.174;4.438;2024-01-25T07:47:09;8.10;99.90
26081;DHT22;13991;51.174;4.438;2024-01-25T07:49:35;8.20;99.90
26081;DHT22;13991;51.174;4.438;2024-01-25T07:52:00;8.20;99.90
26081;DHT22;13991;51.174;4.438;2024-01-25T07:54:26;8.20;99.90
26081;DHT22;13991;51.174;4.438;2024-01-25T07:56:52;8.30;99.90
26081;DHT22;13991;51.174;4.438;2024-01-25T07:59:17;8.20;99.90
26081;DHT22;13991;51.174;4.438;2024-01-25T08:01:43;8.20;99.90
26081;DHT22;13991;51.174;4.438;2024-01-25T08:04:09;8.20;99.90
26081;DHT22;13991;51.174;4.438;2024-01-25T08:06:34;8.20;99.90
26081;DHT22;13991;51.174;4.438;2024-01-25T08:09:00;8.20;99.90
26081;DHT22;13991;51.174;4.438;2024-01-25T08:11:25;8.30;99.90
26081;DHT22;13991;51.174;4.438;2024-01-25T08:13:51;8.30;99.90
26081;DHT22;13991;51.174;4.438;2024-01-25T08:16:17;8.40;99.90
26081;DHT22;13991;51.174;4.438;2024-01-25T08:18:47;8.50;99.90
26081;DHT22;13991;51.174;4.438;2024-01-25T08:21:13;8.50;99.90
26081;DHT22;13991;51.174;4.438;2024-01-25T08:23:39;8.50;99.90
26081;DHT22;13991;51.174;4.438;2024-01-25T08:26:05;8.50;99.90
26081;DHT22;13991;51.174;4.438;2024-01-25T08:28:35;8.50;99.90
26081;DHT22;13991;51.174;4.438;2024-01-25T08:31:01;8.60;99.90
26081;DHT22;13991;51.174;4.438;2024-01-25T08:33:27;8.60;99.90
26081;DHT22;13991;51.174;4.438;2024-01-25T08:35:53;8.60;99.90
26081;DHT22;13991;51.174;4.438;2024-01-25T08:38:18;8.60;99.90
26081;DHT22;13991;51.174;4.438;2024-01-25T08:40:44;8.60;99.90
26081;DHT22;13991;51.174;4.438;2024-01-25T08:43:10;8.70;99.90
26081;DHT22;13991;51.174;4.438;2024-01-25T08:45:35;8.70;99.90
26081;DHT22;13991;51.174;4.438;2024-01-25T08:48:02;8.80;99.90
26081;DHT22;13991;51.174;4.438;2024-01-25T08:50:28;8.80;99.90
26081;DHT22;13991;51.174;4.438;2024-01-25T08:52:53;8.90;99.90
26081;DHT22;13991;51.174;4.438;2024-01-25T08:55:19;9.00;99.90
26081;DHT22;13991;51.174;4.438;2024-01-25T08:57:45;9.10;99.90
26081;DHT22;13991;51.174;4.438;2024-01-25T09:00:10;9.20;99.90
26081;DHT22;13991;51.174;4.438;2024-01-25T09:02:37;9.20;99.90
26081;DHT22;13991;51.174;4.438;2024-01-25T09:05:07;9.30;99.90
26081;DHT22;13991;51.174;4.438;2024-01-25T09:07:34;9.40;99.90
26081;DHT22;13991;51.174;4.438;2024-01-25T09:10:00;9.40;99.90
26081;DHT22;13991;51.174;4.438;2024-01-25T09:15:56;9.10;99.90
26081;DHT22;13991;51.174;4.438;2024-01-25T09:18:21;9.10;99.90
26081;DHT22;13991;51.174;4.438;2024-01-25T09:20:47;9.10;99.90
26081;DHT22;13991;51.174;4.438;2024-01-25T09:23:16;9.20;99.90
26081;DHT22;13991;51.174;4.438;2024-01-25T09:25:45;9.30;99.90
26081;DHT22;13991;51.174;4.438;2024-01-25T09:28:11;9.50;99.90
26081;DHT22;13991;51.174;4.438;2024-01-25T09:30:38;9.60;99.90
26081;DHT22;13991;51.174;4.438;2024-01-25T09:33:05;9.70;99.90
26081;DHT22;13991;51.174;4.438;2024-01-25T09:35:31;9.70;99.90
26081;DHT22;13991;51.174;4.438;2024-01-25T09:37:56;9.80;99.90
26081;DHT22;13991;51.174;4.438;2024-01-25T09:40:22;9.80;99.90
26081;DHT22;13991;51.174;4.438;2024-01-25T09:42:49;9.90;99.90
26081;DHT22;13991;51.174;4.438;2024-01-25T09:45:18;9.80;99.90
26081;DHT22;13991;51.174;4.438;2024-01-25T09:47:48;9.70;99.90
26081;DHT22;13991;51.174;4.438;2024-01-25T09:50:14;9.70;99.90
26081;DHT22;13991;51.174;4.438;2024-01-25T09:52:43;9.80;99.90
26081;DHT22;13991;51.174;4.438;2024-01-25T09:55:12;9.80;99.90
26081;DHT22;13991;51.174;4.438;2024-01-25T09:57:46;9.90;99.90
26081;DHT22;13991;51.174;4.438;2024-01-25T10:00:13;9.80;99.90
26081;DHT22;13991;51.174;4.438;2024-01-25T10:02:39;9.70;99.90
26081;DHT22;13991;51.174;4.438;2024-01-25T10:05:05;9.80;99.90
26081;DHT22;13991;51.174;4.438;2024-01-25T10:07:42;9.80;99.90
26081;DHT22;13991;51.174;4.438;2024-01-25T10:10:08;9.80;99.90
26081;DHT22;13991;51.174;4.438;2024-01-25T10:12:34;9.70;99.90
26081;DHT22;13991;51.174;4.438;2024-01-25T10:15:00;9.80;99.90
26081;DHT22;13991;51.174;4.438;2024-01-25T10:17:28;9.70;99.90
26081;DHT22;13991;51.174;4.438;2024-01-25T10:19:53;9.70;99.90
26081;DHT22;13991;51.174;4.438;2024-01-25T10:22:19;9.80;99.90
26081;DHT22;13991;51.174;4.438;2024-01-25T10:24:45;9.80;99.90
26081;DHT22;13991;51.174;4.438;2024-01-25T10:27:11;9.90;99.90
26081;DHT22;13991;51.174;4.438;2024-01-25T10:29:38;10.00;99.90
26081;DHT22;13991;51.174;4.438;2024-01-25T10:32:04;10.00;99.90
26081;DHT22;13991;51.174;4.438;2024-01-25T10:34:30;10.10;99.90
26081;DHT22;13991;51.174;4.438;2024-01-25T10:36:57;10.10;99.90
26081;DHT22;13991;51.174;4.438;2024-01-25T10:39:24;10.10;99.90
26081;DHT22;13991;51.174;4.438;2024-01-25T10:41:50;10.20;99.90
26081;DHT22;13991;51.174;4.438;2024-01-25T10:44:17;10.20;99.90
26081;DHT22;13991;51.174;4.438;2024-01-25T10:46:49;10.20;99.90
26081;DHT22;13991;51.174;4.438;2024-01-25T10:49:16;10.20;99.90
26081;DHT22;13991;51.174;4.438;2024-01-25T10:51:44;10.20;99.90
26081;DHT22;13991;51.174;4.438;2024-01-25T10:54:11;10.10;99.90
26081;DHT22;13991;51.174;4.438;2024-01-25T10:56:41;10.10;99.90
26081;DHT22;13991;51.174;4.438;2024-01-25T10:59:07;10.20;99.90
26081;DHT22;13991;51.174;4.438;2024-01-25T11:01:34;10.30;99.90
26081;DHT22;13991;51.174;4.438;2024-01-25T11:04:00;10.40;99.90
26081;DHT22;13991;51.174;4.438;2024-01-25T11:06:27;10.40;99.90
26081;DHT22;13991;51.174;4.438;2024-01-25T11:09:07;10.50;99.90
26081;DHT22;13991;51.174;4.438;2024-01-25T11:11:32;10.50;99.90
26081;DHT22;13991;51.174;4.438;2024-01-25T11:14:01;10.50;99.90
26081;DHT22;13991;51.174;4.438;2024-01-25T11:16:31;10.50;99.90
26081;DHT22;13991;51.174;4.438;2024-01-25T11:18:58;10.50;99.90
26081;DHT22;13991;51.174;4.438;2024-01-25T11:21:40;10.50;99.90
26081;DHT22;13991;51.174;4.438;2024-01-25T11:24:43;10.50;99.90
26081;DHT22;13991;51.174;4.438;2024-01-25T11:27:09;10.70;99.90
26081;DHT22;13991;51.174;4.438;2024-01-25T11:29:36;10.70;99.90
26081;DHT22;13991;51.174;4.438;2024-01-25T11:32:03;10.80;99.90
26081;DHT22;13991;51.174;4.438;2024-01-25T11:34:29;10.70;99.90
26081;DHT22;13991;51.174;4.438;2024-01-25T11:36:57;10.70;99.90
26081;DHT22;13991;51.174;4.438;2024-01-25T11:39:23;10.80;99.90
26081;DHT22;13991;51.174;4.438;2024-01-25T11:41:51;10.80;99.90
26081;DHT22;13991;51.174;4.438;2024-01-25T11:44:17;10.80;99.90
26081;DHT22;13991;51.174;4.438;2024-01-25T11:46:43;10.70;99.90
26081;DHT22;13991;51.174;4.438;2024-01-25T11:49:09;10.70;99.90
26081;DHT22;13991;51.174;4.438;2024-01-25T11:51:34;10.70;99.90
26081;DHT22;13991;51.174;4.438;2024-01-25T11:54:00;10.70;99.90
26081;DHT22;13991;51.174;4.438;2024-01-25T11:56:32;10.80;99.90
26081;DHT22;13991;51.174;4.438;2024-01-25T11:58:59;10.90;99.90
26081;DHT22;13991;51.174;4.438;2024-01-25T12:01:26;11.00;99.90
26081;DHT22;13991;51.174;4.438;2024-01-25T12:03:53;11.10;99.90
26081;DHT22;13991;51.174;4.438;2024-01-25T12:06:19;11.10;99.90
26081;DHT22;13991;51.174;4.438;2024-01-25T12:08:45;11.20;99.90
26081;DHT22;13991;51.174;4.438;2024-01-25T12:11:14;11.30;99.90
26081;DHT22;13991;51.174;4.438;2024-01-25T12:13:41;11.30;99.90
26081;DHT22;13991;51.174;4.438;2024-01-25T12:16:11;11.30;99.90
26081;DHT22;13991;51.174;4.438;2024-01-25T12:18:41;11.30;99.90
26081;DHT22;13991;51.174;4.438;2024-01-25T12:21:08;11.40;99.90
26081;DHT22;13991;51.174;4.438;2024-01-25T12:23:42;11.30;99.90
26081;DHT22;13991;51.174;4.438;2024-01-25T12:26:10;11.50;99.90
26081;DHT22;13991;51.174;4.438;2024-01-25T12:28:37;11.60;99.90
26081;DHT22;13991;51.174;4.438;2024-01-25T12:31:05;11.60;99.90
26081;DHT22;13991;51.174;4.438;2024-01-25T12:33:32;11.60;99.90
26081;DHT22;13991;51.174;4.438;2024-01-25T12:35:58;11.60;99.90
26081;DHT22;13991;51.174;4.438;2024-01-25T12:38:24;11.50;99.90
26081;DHT22;13991;51.174;4.438;2024-01-25T12:40:51;11.50;99.90
26081;DHT22;13991;51.174;4.438;2024-01-25T12:43:17;11.60;99.90
26081;DHT22;13991;51.174;4.438;2024-01-25T12:45:44;11.60;99.90
26081;DHT22;13991;51.174;4.438;2024-01-25T12:48:10;11.80;99.90
26081;DHT22;13991;51.174;4.438;2024-01-25T12:50:36;11.80;99.90
26081;DHT22;13991;51.174;4.438;2024-01-25T12:53:03;11.70;99.90
26081;DHT22;13991;51.174;4.438;2024-01-25T12:55:29;11.60;99.90
26081;DHT22;13991;51.174;4.438;2024-01-25T12:57:58;11.80;99.90
26081;DHT22;13991;51.174;4.438;2024-01-25T13:00:24;11.70;99.90
26081;DHT22;13991;51.174;4.438;2024-01-25T13:02:50;11.80;99.90
26081;DHT22;13991;51.174;4.438;2024-01-25T13:05:16;11.80;99.90
26081;DHT22;13991;51.174;4.438;2024-01-25T13:07:42;11.80;99.90
26081;DHT22;13991;51.174;4.438;2024-01-25T13:10:11;11.80;99.90
26081;DHT22;13991;51.174;4.438;2024-01-25T13:12:37;11.70;99.90
26081;DHT22;13991;51.174;4.438;2024-01-25T13:15:07;11.70;99.90
26081;DHT22;13991;51.174;4.438;2024-01-25T13:17:35;11.80;99.90
26081;DHT22;13991;51.174;4.438;2024-01-25T13:20:02;11.80;99.90
26081;DHT22;13991;51.174;4.438;2024-01-25T13:22:28;11.70;99.90
26081;DHT22;13991;51.174;4.438;2024-01-25T13:24:55;11.80;99.90
26081;DHT22;13991;51.174;4.438;2024-01-25T13:27:21;11.70;99.90
26081;DHT22;13991;51.174;4.438;2024-01-25T13:29:46;11.70;99.90
26081;DHT22;13991;51.174;4.438;2024-01-25T13:32:12;11.70;99.90
26081;DHT22;13991;51.174;4.438;2024-01-25T13:34:38;11.70;99.90
26081;DHT22;13991;51.174;4.438;2024-01-25T13:37:03;11.70;99.90
26081;DHT22;13991;51.174;4.438;2024-01-25T13:39:29;11.80;99.90
26081;DHT22;13991;51.174;4.438;2024-01-25T13:41:55;11.80;99.90
26081;DHT22;13991;51.174;4.438;2024-01-25T13:44:22;11.80;99.90
26081;DHT22;13991;51.174;4.438;2024-01-25T13:46:47;11.70;99.90
26081;DHT22;13991;51.174;4.438;2024-01-25T13:49:13;11.70;99.90
26081;DHT22;13991;51.174;4.438;2024-01-25T13:51:39;11.70;99.90
26081;DHT22;13991;51.174;4.438;2024-01-25T13:54:04;11.70;99.90
26081;DHT22;13991;51.174;4.438;2024-01-25T13:56:30;11.70;99.90
26081;DHT22;13991;51.174;4.438;2024-01-25T13:58:56;11.80;99.90
26081;DHT22;13991;51.174;4.438;2024-01-25T14:01:22;11.80;99.90
26081;DHT22;13991;51.174;4.438;2024-01-25T14:03:47;11.90;99.90
26081;DHT22;13991;51.174;4.438;2024-01-25T14:06:13;12.00;99.90
26081;DHT22;13991;51.174;4.438;2024-01-25T14:08:39;11.90;99.90
26081;DHT22;13991;51.174;4.438;2024-01-25T14:11:04;11.80;99.90
26081;DHT22;13991;51.174;4.438;2024-01-25T14:13:34;11.70;99.90
26081;DHT22;13991;51.174;4.438;2024-01-25T14:16:00;11.70;99.90
26081;DHT22;13991;51.174;4.438;2024-01-25T14:18:27;11.60;99.90
26081;DHT22;13991;51.174;4.438;2024-01-25T14:20:54;11.70;99.90
26081;DHT22;13991;51.174;4.438;2024-01-25T14:23:20;11.70;99.90
26081;DHT22;13991;51.174;4.438;2024-01-25T14:25:47;11.90;99.90
26081;DHT22;13991;51.174;4.438;2024-01-25T14:28:12;12.00;99.90
26081;DHT22;13991;51.174;4.438;2024-01-25T14:30:38;12.00;99.90
26081;DHT22;13991;51.174;4.438;2024-01-25T14:33:04;11.90;99.90
26081;DHT22;13991;51.174;4.438;2024-01-25T14:35:29;12.00;99.90
26081;DHT22;13991;51.174;4.438;2024-01-25T14:37:56;12.00;99.90
26081;DHT22;13991;51.174;4.438;2024-01-25T14:40:22;12.00;99.90
26081;DHT22;13991;51.174;4.438;2024-01-25T14:42:48;11.90;99.90
26081;DHT22;13991;51.174;4.438;2024-01-25T14:45:14;12.00;99.90
26081;DHT22;13991;51.174;4.438;2024-01-25T14:47:39;12.00;99.90
26081;DHT22;13991;51.174;4.438;2024-01-25T14:50:06;12.00;99.90
26081;DHT22;13991;51.174;4.438;2024-01-25T14:52:32;12.00;99.90
26081;DHT22;13991;51.174;4.438;2024-01-25T14:55:00;12.00;99.90
26081;DHT22;13991;51.174;4.438;2024-01-25T14:57:26;12.20;99.90
26081;DHT22;13991;51.174;4.438;2024-01-25T14:59:52;12.20;99.90
26081;DHT22;13991;51.174;4.438;2024-01-25T15:02:17;12.10;99.90
26081;DHT22;13991;51.174;4.438;2024-01-25T15:04:44;12.00;99.90
26081;DHT22;13991;51.174;4.438;2024-01-25T15:07:09;12.00;99.90
26081;DHT22;13991;51.174;4.438;2024-01-25T15:09:35;12.00;99.90
26081;DHT22;13991;51.174;4.438;2024-01-25T15:12:00;12.10;99.90
26081;DHT22;13991;51.174;4.438;2024-01-25T15:14:26;12.10;99.90
26081;DHT22;13991;51.174;4.438;2024-01-25T15:16:52;12.10;99.90
26081;DHT22;13991;51.174;4.438;2024-01-25T15:19:17;12.10;99.90
26081;DHT22;13991;51.174;4.438;2024-01-25T15:21:43;11.90;99.90
26081;DHT22;13991;51.174;4.438;2024-01-25T15:24:09;12.00;99.90
26081;DHT22;13991;51.174;4.438;2024-01-25T15:26:39;12.00;99.90
26081;DHT22;13991;51.174;4.438;2024-01-25T15:29:05;11.90;99.90
26081;DHT22;13991;51.174;4.438;2024-01-25T15:31:30;12.00;99.90
26081;DHT22;13991;51.174;4.438;2024-01-25T15:33:56;12.20;99.90
26081;DHT22;13991;51.174;4.438;2024-01-25T15:36:22;12.10;99.90
26081;DHT22;13991;51.174;4.438;2024-01-25T15:38:48;12.00;99.90